sensor_id;sensor_type;location;lat;lon;timestamp;P1;durP1;ratioP1;P2;durP2;ratioP2
75016;SDS011;63577;39.766;2.720;2023-04-25T00:00:24;3.30;;;1.10;;
75016;SDS011;63577;39.766;2.720;2023-04-25T00:02:50;6.10;;;1.50;;
75016;SDS011;63577;39.766;2.720;2023-04-25T00:05:15;5.30;;;1.40;;
75016;SDS011;63577;39.766;2.720;2023-04-25T00:07:41;3.10;;;1.10;;
75016;SDS011;63577;39.766;2.720;2023-04-25T00:10:09;5.10;;;1.10;;
75016;SDS011;63577;39.766;2.720;2023-04-25T00:12:36;3.20;;;1.00;;
75016;SDS011;63577;39.766;2.720;2023-04-25T00:15:01;4.00;;;1.20;;
75016;SDS011;63577;39.766;2.720;2023-04-25T00:17:28;5.00;;;1.10;;
75016;SDS011;63577;39.766;2.720;2023-04-25T00:19:53;5.30;;;1.30;;
75016;SDS011;63577;39.766;2.720;2023-04-25T00:22:18;3.00;;;1.20;;
75016;SDS011;63577;39.766;2.720;2023-04-25T00:24:44;3.00;;;1.00;;
75016;SDS011;63577;39.766;2.720;2023-04-25T00:27:09;3.20;;;0.80;;
75016;SDS011;63577;39.766;2.720;2023-04-25T00:29:34;2.40;;;0.80;;
75016;SDS011;63577;39.766;2.720;2023-04-25T00:32:00;2.70;;;0.80;;
75016;SDS011;63577;39.766;2.720;2023-04-25T00:34:25;3.50;;;1.10;;
75016;SDS011;63577;39.766;2.720;2023-04-25T00:36:51;4.40;;;1.70;;
75016;SDS011;63577;39.766;2.720;2023-04-25T00:39:16;6.40;;;1.70;;
75016;SDS011;63577;39.766;2.720;2023-04-25T00:41:41;5.10;;;2.00;;
75016;SDS011;63577;39.766;2.720;2023-04-25T00:44:08;3.80;;;1.70;;
75016;SDS011;63577;39.766;2.720;2023-04-25T00:46:36;4.00;;;1.40;;
75016;SDS011;63577;39.766;2.720;2023-04-25T00:49:02;4.70;;;1.50;;
75016;SDS011;63577;39.766;2.720;2023-04-25T00:51:27;4.50;;;1.60;;
75016;SDS011;63577;39.766;2.720;2023-04-25T00:53:53;3.40;;;1.30;;
75016;SDS011;63577;39.766;2.720;2023-04-25T00:56:18;3.20;;;1.20;;
75016;SDS011;63577;39.766;2.720;2023-04-25T00:58:44;3.60;;;1.00;;
75016;SDS011;63577;39.766;2.720;2023-04-25T01:01:10;2.90;;;1.20;;
75016;SDS011;63577;39.766;2.720;2023-04-25T01:03:37;2.50;;;1.00;;
75016;SDS011;63577;39.766;2.720;2023-04-25T01:06:07;3.30;;;1.00;;
75016;SDS011;63577;39.766;2.720;2023-04-25T01:08:32;3.30;;;1.10;;
75016;SDS011;63577;39.766;2.720;2023-04-25T01:10:59;2.90;;;1.00;;
75016;SDS011;63577;39.766;2.720;2023-04-25T01:13:24;3.70;;;0.90;;
75016;SDS011;63577;39.766;2.720;2023-04-25T01:15:49;3.30;;;1.00;;
75016;SDS011;63577;39.766;2.720;2023-04-25T01:18:15;2.80;;;1.00;;
75016;SDS011;63577;39.766;2.720;2023-04-25T01:20:41;3.40;;;1.00;;
75016;SDS011;63577;39.766;2.720;2023-04-25T01:23:07;3.00;;;0.90;;
75016;SDS011;63577;39.766;2.720;2023-04-25T01:25:32;2.50;;;0.90;;
75016;SDS011;63577;39.766;2.720;2023-04-25T01:27:57;3.00;;;0.90;;
75016;SDS011;63577;39.766;2.720;2023-04-25T01:30:24;3.10;;;1.10;;
75016;SDS011;63577;39.766;2.720;2023-04-25T01:32:50;3.80;;;1.10;;
75016;SDS011;63577;39.766;2.720;2023-04-25T01:35:16;3.10;;;1.00;;
75016;SDS011;63577;39.766;2.720;2023-04-25T01:37:42;3.10;;;1.20;;
75016;SDS011;63577;39.766;2.720;2023-04-25T01:40:08;3.00;;;1.20;;
75016;SDS011;63577;39.766;2.720;2023-04-25T01:42:35;4.10;;;1.10;;
75016;SDS011;63577;39.766;2.720;2023-04-25T01:45:01;2.60;;;1.00;;
75016;SDS011;63577;39.766;2.720;2023-04-25T01:47:27;4.70;;;1.20;;
75016;SDS011;63577;39.766;2.720;2023-04-25T01:49:52;3.50;;;1.30;;
75016;SDS011;63577;39.766;2.720;2023-04-25T01:52:17;3.30;;;1.20;;
75016;SDS011;63577;39.766;2.720;2023-04-25T01:54:43;3.80;;;1.30;;
75016;SDS011;63577;39.766;2.720;2023-04-25T01:57:10;4.80;;;1.20;;
75016;SDS011;63577;39.766;2.720;2023-04-25T01:59:36;4.10;;;1.30;;
75016;SDS011;63577;39.766;2.720;2023-04-25T02:02:01;4.30;;;1.40;;
75016;SDS011;63577;39.766;2.720;2023-04-25T02:04:31;4.90;;;1.70;;
75016;SDS011;63577;39.766;2.720;2023-04-25T02:06:57;4.00;;;1.40;;
75016;SDS011;63577;39.766;2.720;2023-04-25T02:09:22;4.40;;;1.40;;
75016;SDS011;63577;39.766;2.720;2023-04-25T02:11:48;4.20;;;1.10;;
75016;SDS011;63577;39.766;2.720;2023-04-25T02:14:14;3.50;;;1.40;;
75016;SDS011;63577;39.766;2.720;2023-04-25T02:16:39;4.20;;;1.40;;
75016;SDS011;63577;39.766;2.720;2023-04-25T02:19:04;2.90;;;1.30;;
75016;SDS011;63577;39.766;2.720;2023-04-25T02:21:30;5.50;;;1.50;;
75016;SDS011;63577;39.766;2.720;2023-04-25T02:23:56;4.50;;;1.30;;
75016;SDS011;63577;39.766;2.720;2023-04-25T02:26:21;3.90;;;1.30;;
75016;SDS011;63577;39.766;2.720;2023-04-25T02:28:49;3.70;;;1.50;;
75016;SDS011;63577;39.766;2.720;2023-04-25T02:31:14;4.70;;;1.40;;
75016;SDS011;63577;39.766;2.720;2023-04-25T02:33:40;3.90;;;1.30;;
75016;SDS011;63577;39.766;2.720;2023-04-25T02:36:05;5.00;;;1.60;;
75016;SDS011;63577;39.766;2.720;2023-04-25T02:38:30;4.60;;;1.60;;
75016;SDS011;63577;39.766;2.720;2023-04-25T02:40:56;4.70;;;1.50;;
75016;SDS011;63577;39.766;2.720;2023-04-25T02:43:21;3.20;;;1.30;;
75016;SDS011;63577;39.766;2.720;2023-04-25T02:45:47;4.00;;;1.60;;
75016;SDS011;63577;39.766;2.720;2023-04-25T02:48:12;4.30;;;1.70;;
75016;SDS011;63577;39.766;2.720;2023-04-25T02:50:37;3.30;;;1.70;;
75016;SDS011;63577;39.766;2.720;2023-04-25T02:53:03;3.30;;;1.40;;
75016;SDS011;63577;39.766;2.720;2023-04-25T02:55:28;5.50;;;1.70;;
75016;SDS011;63577;39.766;2.720;2023-04-25T02:57:54;4.40;;;1.60;;
75016;SDS011;63577;39.766;2.720;2023-04-25T03:00:20;4.40;;;1.70;;
75016;SDS011;63577;39.766;2.720;2023-04-25T03:02:46;4.90;;;1.90;;
75016;SDS011;63577;39.766;2.720;2023-04-25T03:05:11;4.50;;;1.70;;
75016;SDS011;63577;39.766;2.720;2023-04-25T03:07:37;4.20;;;1.30;;
75016;SDS011;63577;39.766;2.720;2023-04-25T03:10:05;3.80;;;1.50;;
75016;SDS011;63577;39.766;2.720;2023-04-25T03:12:31;3.70;;;1.60;;
75016;SDS011;63577;39.766;2.720;2023-04-25T03:14:56;3.70;;;1.60;;
75016;SDS011;63577;39.766;2.720;2023-04-25T03:17:21;4.10;;;1.70;;
75016;SDS011;63577;39.766;2.720;2023-04-25T03:19:47;3.90;;;1.40;;
75016;SDS011;63577;39.766;2.720;2023-04-25T03:22:12;3.20;;;1.30;;
75016;SDS011;63577;39.766;2.720;2023-04-25T03:24:38;5.20;;;1.60;;
75016;SDS011;63577;39.766;2.720;2023-04-25T03:27:03;3.90;;;1.30;;
75016;SDS011;63577;39.766;2.720;2023-04-25T03:29:28;3.40;;;1.30;;
75016;SDS011;63577;39.766;2.720;2023-04-25T03:31:54;3.40;;;1.40;;
75016;SDS011;63577;39.766;2.720;2023-04-25T03:34:19;5.70;;;1.50;;
75016;SDS011;63577;39.766;2.720;2023-04-25T03:36:46;3.80;;;1.30;;
75016;SDS011;63577;39.766;2.720;2023-04-25T03:39:12;4.10;;;1.40;;
75016;SDS011;63577;39.766;2.720;2023-04-25T03:41:37;3.60;;;1.60;;
75016;SDS011;63577;39.766;2.720;2023-04-25T03:44:03;4.10;;;1.50;;
75016;SDS011;63577;39.766;2.720;2023-04-25T03:46:28;4.40;;;1.50;;
75016;SDS011;63577;39.766;2.720;2023-04-25T03:48:53;4.10;;;1.20;;
75016;SDS011;63577;39.766;2.720;2023-04-25T03:51:19;3.20;;;1.20;;
75016;SDS011;63577;39.766;2.720;2023-04-25T03:53:44;4.90;;;1.30;;
75016;SDS011;63577;39.766;2.720;2023-04-25T03:56:09;2.90;;;1.30;;
75016;SDS011;63577;39.766;2.720;2023-04-25T03:58:35;3.50;;;1.20;;
75016;SDS011;63577;39.766;2.720;2023-04-25T04:01:00;5.70;;;1.40;;
75016;SDS011;63577;39.766;2.720;2023-04-25T04:03:28;3.60;;;1.70;;
75016;SDS011;63577;39.766;2.720;2023-04-25T04:05:53;4.60;;;1.60;;
75016;SDS011;63577;39.766;2.720;2023-04-25T04:08:18;3.60;;;1.40;;
75016;SDS011;63577;39.766;2.720;2023-04-25T04:10:44;3.70;;;1.40;;
75016;SDS011;63577;39.766;2.720;2023-04-25T04:13:09;3.80;;;1.40;;
75016;SDS011;63577;39.766;2.720;2023-04-25T04:15:35;4.20;;;1.50;;
75016;SDS011;63577;39.766;2.720;2023-04-25T04:18:00;4.30;;;1.50;;
75016;SDS011;63577;39.766;2.720;2023-04-25T04:20:28;4.50;;;1.60;;
75016;SDS011;63577;39.766;2.720;2023-04-25T04:22:54;4.50;;;1.50;;
75016;SDS011;63577;39.766;2.720;2023-04-25T04:25:19;4.30;;;1.70;;
75016;SDS011;63577;39.766;2.720;2023-04-25T04:27:45;3.50;;;1.50;;
75016;SDS011;63577;39.766;2.720;2023-04-25T04:30:11;3.70;;;1.60;;
75016;SDS011;63577;39.766;2.720;2023-04-25T04:32:37;3.70;;;1.40;;
75016;SDS011;63577;39.766;2.720;2023-04-25T04:35:03;3.40;;;1.80;;
75016;SDS011;63577;39.766;2.720;2023-04-25T04:37:29;3.90;;;1.60;;
75016;SDS011;63577;39.766;2.720;2023-04-25T04:39:55;3.30;;;1.50;;
75016;SDS011;63577;39.766;2.720;2023-04-25T04:42:21;4.60;;;1.50;;
75016;SDS011;63577;39.766;2.720;2023-04-25T04:44:46;4.70;;;1.50;;
75016;SDS011;63577;39.766;2.720;2023-04-25T04:47:12;3.90;;;1.30;;
75016;SDS011;63577;39.766;2.720;2023-04-25T04:49:39;5.30;;;1.70;;
75016;SDS011;63577;39.766;2.720;2023-04-25T04:52:05;4.00;;;1.70;;
75016;SDS011;63577;39.766;2.720;2023-04-25T04:54:30;4.50;;;1.70;;
75016;SDS011;63577;39.766;2.720;2023-04-25T04:56:55;4.50;;;1.60;;
75016;SDS011;63577;39.766;2.720;2023-04-25T04:59:21;4.30;;;1.70;;
75016;SDS011;63577;39.766;2.720;2023-04-25T05:01:46;4.40;;;1.70;;
75016;SDS011;63577;39.766;2.720;2023-04-25T05:04:12;5.70;;;1.60;;
75016;SDS011;63577;39.766;2.720;2023-04-25T05:06:37;4.70;;;1.80;;
75016;SDS011;63577;39.766;2.720;2023-04-25T05:09:02;5.20;;;1.80;;
75016;SDS011;63577;39.766;2.720;2023-04-25T05:11:28;4.30;;;1.80;;
75016;SDS011;63577;39.766;2.720;2023-04-25T05:13:54;3.80;;;1.60;;
75016;SDS011;63577;39.766;2.720;2023-04-25T05:16:20;5.60;;;1.70;;
75016;SDS011;63577;39.766;2.720;2023-04-25T05:18:46;4.40;;;1.50;;
75016;SDS011;63577;39.766;2.720;2023-04-25T05:21:11;4.90;;;1.80;;
75016;SDS011;63577;39.766;2.720;2023-04-25T05:23:36;4.60;;;1.60;;
75016;SDS011;63577;39.766;2.720;2023-04-25T05:26:02;6.10;;;2.10;;
75016;SDS011;63577;39.766;2.720;2023-04-25T05:28:27;4.60;;;2.50;;
75016;SDS011;63577;39.766;2.720;2023-04-25T05:30:53;6.30;;;2.50;;
75016;SDS011;63577;39.766;2.720;2023-04-25T05:33:18;5.30;;;2.30;;
75016;SDS011;63577;39.766;2.720;2023-04-25T05:35:44;5.90;;;2.30;;
75016;SDS011;63577;39.766;2.720;2023-04-25T05:38:10;5.90;;;2.30;;
75016;SDS011;63577;39.766;2.720;2023-04-25T05:40:35;3.90;;;2.30;;
75016;SDS011;63577;39.766;2.720;2023-04-25T05:43:00;3.90;;;1.80;;
75016;SDS011;63577;39.766;2.720;2023-04-25T05:45:26;5.40;;;2.00;;
75016;SDS011;63577;39.766;2.720;2023-04-25T05:47:51;7.20;;;3.50;;
75016;SDS011;63577;39.766;2.720;2023-04-25T05:50:16;8.70;;;6.40;;
75016;SDS011;63577;39.766;2.720;2023-04-25T05:52:42;12.90;;;8.80;;
75016;SDS011;63577;39.766;2.720;2023-04-25T05:55:07;9.70;;;8.00;;
75016;SDS011;63577;39.766;2.720;2023-04-25T05:57:33;9.40;;;7.40;;
75016;SDS011;63577;39.766;2.720;2023-04-25T05:59:58;10.70;;;6.50;;
75016;SDS011;63577;39.766;2.720;2023-04-25T06:02:24;11.10;;;6.90;;
75016;SDS011;63577;39.766;2.720;2023-04-25T06:04:50;9.40;;;6.40;;
75016;SDS011;63577;39.766;2.720;2023-04-25T06:07:16;10.80;;;6.90;;
75016;SDS011;63577;39.766;2.720;2023-04-25T06:09:41;9.60;;;6.60;;
75016;SDS011;63577;39.766;2.720;2023-04-25T06:12:07;9.70;;;6.00;;
75016;SDS011;63577;39.766;2.720;2023-04-25T06:14:32;12.00;;;6.50;;
75016;SDS011;63577;39.766;2.720;2023-04-25T06:16:58;13.90;;;7.80;;
75016;SDS011;63577;39.766;2.720;2023-04-25T06:19:23;10.90;;;7.30;;
75016;SDS011;63577;39.766;2.720;2023-04-25T06:21:48;12.70;;;8.40;;
75016;SDS011;63577;39.766;2.720;2023-04-25T06:24:14;13.40;;;8.80;;
75016;SDS011;63577;39.766;2.720;2023-04-25T06:26:39;14.30;;;8.60;;
75016;SDS011;63577;39.766;2.720;2023-04-25T06:29:05;23.30;;;8.20;;
75016;SDS011;63577;39.766;2.720;2023-04-25T06:31:30;15.60;;;8.00;;
75016;SDS011;63577;39.766;2.720;2023-04-25T06:33:57;19.20;;;9.30;;
75016;SDS011;63577;39.766;2.720;2023-04-25T06:36:23;22.10;;;9.60;;
75016;SDS011;63577;39.766;2.720;2023-04-25T06:38:52;18.60;;;7.60;;
75016;SDS011;63577;39.766;2.720;2023-04-25T06:41:18;15.70;;;8.30;;
75016;SDS011;63577;39.766;2.720;2023-04-25T06:43:44;13.50;;;7.90;;
75016;SDS011;63577;39.766;2.720;2023-04-25T06:46:09;13.10;;;6.50;;
75016;SDS011;63577;39.766;2.720;2023-04-25T06:48:35;12.10;;;6.40;;
75016;SDS011;63577;39.766;2.720;2023-04-25T06:51:00;10.90;;;5.80;;
75016;SDS011;63577;39.766;2.720;2023-04-25T06:53:25;10.50;;;6.00;;
75016;SDS011;63577;39.766;2.720;2023-04-25T06:55:51;12.80;;;5.90;;
75016;SDS011;63577;39.766;2.720;2023-04-25T06:58:16;9.00;;;5.20;;
75016;SDS011;63577;39.766;2.720;2023-04-25T07:00:42;10.90;;;6.00;;
75016;SDS011;63577;39.766;2.720;2023-04-25T07:03:07;9.00;;;5.20;;
75016;SDS011;63577;39.766;2.720;2023-04-25T07:05:33;10.10;;;5.40;;
75016;SDS011;63577;39.766;2.720;2023-04-25T07:07:58;10.50;;;5.30;;
75016;SDS011;63577;39.766;2.720;2023-04-25T07:10:24;8.50;;;5.30;;
75016;SDS011;63577;39.766;2.720;2023-04-25T07:12:50;8.50;;;4.50;;
75016;SDS011;63577;39.766;2.720;2023-04-25T07:15:15;10.30;;;4.70;;
75016;SDS011;63577;39.766;2.720;2023-04-25T07:17:40;8.80;;;4.50;;
75016;SDS011;63577;39.766;2.720;2023-04-25T07:20:06;8.80;;;4.60;;
75016;SDS011;63577;39.766;2.720;2023-04-25T07:22:32;6.70;;;4.20;;
75016;SDS011;63577;39.766;2.720;2023-04-25T07:24:58;7.60;;;4.10;;
75016;SDS011;63577;39.766;2.720;2023-04-25T07:27:23;9.40;;;4.00;;
75016;SDS011;63577;39.766;2.720;2023-04-25T07:29:48;7.40;;;3.30;;
75016;SDS011;63577;39.766;2.720;2023-04-25T07:32:14;8.90;;;3.60;;
75016;SDS011;63577;39.766;2.720;2023-04-25T07:34:39;9.00;;;3.90;;
75016;SDS011;63577;39.766;2.720;2023-04-25T07:37:05;8.30;;;3.30;;
75016;SDS011;63577;39.766;2.720;2023-04-25T07:39:30;8.30;;;4.00;;
75016;SDS011;63577;39.766;2.720;2023-04-25T07:41:56;7.20;;;3.80;;
75016;SDS011;63577;39.766;2.720;2023-04-25T07:44:23;9.90;;;3.50;;
75016;SDS011;63577;39.766;2.720;2023-04-25T07:46:49;7.10;;;3.40;;
75016;SDS011;63577;39.766;2.720;2023-04-25T07:49:14;7.70;;;3.40;;
75016;SDS011;63577;39.766;2.720;2023-04-25T07:51:40;6.50;;;3.50;;
75016;SDS011;63577;39.766;2.720;2023-04-25T07:54:08;6.10;;;3.50;;
75016;SDS011;63577;39.766;2.720;2023-04-25T07:56:33;8.70;;;4.30;;
75016;SDS011;63577;39.766;2.720;2023-04-25T07:58:59;11.90;;;6.00;;
75016;SDS011;63577;39.766;2.720;2023-04-25T08:01:25;18.00;;;8.10;;
75016;SDS011;63577;39.766;2.720;2023-04-25T08:03:52;12.30;;;7.40;;
75016;SDS011;63577;39.766;2.720;2023-04-25T08:06:17;18.20;;;9.30;;
75016;SDS011;63577;39.766;2.720;2023-04-25T08:08:43;14.90;;;8.00;;
75016;SDS011;63577;39.766;2.720;2023-04-25T08:11:08;15.90;;;8.10;;
75016;SDS011;63577;39.766;2.720;2023-04-25T08:13:33;13.50;;;6.70;;
75016;SDS011;63577;39.766;2.720;2023-04-25T08:15:59;11.80;;;6.20;;
75016;SDS011;63577;39.766;2.720;2023-04-25T08:18:24;13.00;;;6.70;;
75016;SDS011;63577;39.766;2.720;2023-04-25T08:20:49;17.00;;;6.60;;
75016;SDS011;63577;39.766;2.720;2023-04-25T08:23:15;11.50;;;5.60;;
75016;SDS011;63577;39.766;2.720;2023-04-25T08:25:40;11.20;;;5.90;;
75016;SDS011;63577;39.766;2.720;2023-04-25T08:28:06;11.90;;;5.50;;
75016;SDS011;63577;39.766;2.720;2023-04-25T08:30:31;10.20;;;5.40;;
75016;SDS011;63577;39.766;2.720;2023-04-25T08:32:56;11.40;;;4.90;;
75016;SDS011;63577;39.766;2.720;2023-04-25T08:35:22;8.20;;;4.00;;
75016;SDS011;63577;39.766;2.720;2023-04-25T08:37:48;6.90;;;3.80;;
75016;SDS011;63577;39.766;2.720;2023-04-25T08:40:14;10.40;;;4.40;;
75016;SDS011;63577;39.766;2.720;2023-04-25T08:42:41;9.50;;;4.50;;
75016;SDS011;63577;39.766;2.720;2023-04-25T08:45:07;6.40;;;3.00;;
75016;SDS011;63577;39.766;2.720;2023-04-25T08:47:33;6.50;;;3.40;;
75016;SDS011;63577;39.766;2.720;2023-04-25T08:49:59;5.90;;;3.20;;
75016;SDS011;63577;39.766;2.720;2023-04-25T08:52:24;6.00;;;3.30;;
75016;SDS011;63577;39.766;2.720;2023-04-25T08:54:52;6.70;;;2.80;;
75016;SDS011;63577;39.766;2.720;2023-04-25T08:57:19;7.60;;;3.20;;
75016;SDS011;63577;39.766;2.720;2023-04-25T08:59:45;10.60;;;2.70;;
75016;SDS011;63577;39.766;2.720;2023-04-25T09:02:11;6.50;;;3.20;;
75016;SDS011;63577;39.766;2.720;2023-04-25T09:04:44;6.70;;;3.40;;
75016;SDS011;63577;39.766;2.720;2023-04-25T09:07:10;9.20;;;3.50;;
75016;SDS011;63577;39.766;2.720;2023-04-25T09:09:35;7.30;;;3.60;;
75016;SDS011;63577;39.766;2.720;2023-04-25T09:12:01;8.30;;;3.50;;
75016;SDS011;63577;39.766;2.720;2023-04-25T09:14:26;11.30;;;3.60;;
75016;SDS011;63577;39.766;2.720;2023-04-25T09:22:00;7.30;;;3.10;;
75016;SDS011;63577;39.766;2.720;2023-04-25T09:24:35;9.10;;;3.40;;
75016;SDS011;63577;39.766;2.720;2023-04-25T09:27:08;7.70;;;3.40;;
75016;SDS011;63577;39.766;2.720;2023-04-25T09:29:35;7.60;;;3.40;;
75016;SDS011;63577;39.766;2.720;2023-04-25T09:32:11;5.70;;;3.20;;
75016;SDS011;63577;39.766;2.720;2023-04-25T09:34:41;8.80;;;3.60;;
75016;SDS011;63577;39.766;2.720;2023-04-25T09:37:10;8.70;;;3.70;;
75016;SDS011;63577;39.766;2.720;2023-04-25T09:39:39;6.80;;;3.10;;
75016;SDS011;63577;39.766;2.720;2023-04-25T09:42:05;8.20;;;3.60;;
75016;SDS011;63577;39.766;2.720;2023-04-25T09:44:30;7.40;;;3.60;;
75016;SDS011;63577;39.766;2.720;2023-04-25T09:46:56;7.50;;;3.60;;
75016;SDS011;63577;39.766;2.720;2023-04-25T09:49:22;9.90;;;3.80;;
75016;SDS011;63577;39.766;2.720;2023-04-25T09:51:57;8.00;;;3.70;;
75016;SDS011;63577;39.766;2.720;2023-04-25T09:54:23;8.70;;;3.80;;
75016;SDS011;63577;39.766;2.720;2023-04-25T09:56:49;9.10;;;4.10;;
75016;SDS011;63577;39.766;2.720;2023-04-25T09:59:16;7.60;;;4.00;;
75016;SDS011;63577;39.766;2.720;2023-04-25T10:01:42;8.30;;;3.80;;
75016;SDS011;63577;39.766;2.720;2023-04-25T10:04:09;8.00;;;3.40;;
75016;SDS011;63577;39.766;2.720;2023-04-25T10:06:35;7.30;;;3.90;;
75016;SDS011;63577;39.766;2.720;2023-04-25T10:09:02;9.20;;;3.80;;
75016;SDS011;63577;39.766;2.720;2023-04-25T10:11:28;8.80;;;3.50;;
75016;SDS011;63577;39.766;2.720;2023-04-25T10:13:55;8.90;;;3.60;;
75016;SDS011;63577;39.766;2.720;2023-04-25T10:16:21;8.40;;;4.10;;
75016;SDS011;63577;39.766;2.720;2023-04-25T10:18:47;9.10;;;4.50;;
75016;SDS011;63577;39.766;2.720;2023-04-25T10:21:13;8.20;;;4.30;;
75016;SDS011;63577;39.766;2.720;2023-04-25T10:23:40;8.40;;;4.10;;
75016;SDS011;63577;39.766;2.720;2023-04-25T10:26:05;9.00;;;4.60;;
75016;SDS011;63577;39.766;2.720;2023-04-25T10:31:32;10.60;;;4.20;;
75016;SDS011;63577;39.766;2.720;2023-04-25T10:33:59;10.70;;;4.30;;
75016;SDS011;63577;39.766;2.720;2023-04-25T10:36:25;10.20;;;4.90;;
75016;SDS011;63577;39.766;2.720;2023-04-25T10:38:52;7.90;;;3.90;;
75016;SDS011;63577;39.766;2.720;2023-04-25T10:41:18;8.90;;;4.30;;
75016;SDS011;63577;39.766;2.720;2023-04-25T10:43:45;9.60;;;4.40;;
75016;SDS011;63577;39.766;2.720;2023-04-25T10:46:15;9.60;;;4.60;;
75016;SDS011;63577;39.766;2.720;2023-04-25T10:48:50;9.00;;;4.70;;
75016;SDS011;63577;39.766;2.720;2023-04-25T10:51:23;10.50;;;5.00;;
75016;SDS011;63577;39.766;2.720;2023-04-25T10:56:20;10.40;;;5.00;;
75016;SDS011;63577;39.766;2.720;2023-04-25T10:58:46;7.60;;;4.10;;
75016;SDS011;63577;39.766;2.720;2023-04-25T11:01:12;9.50;;;4.10;;
75016;SDS011;63577;39.766;2.720;2023-04-25T11:03:41;10.90;;;4.00;;
75016;SDS011;63577;39.766;2.720;2023-04-25T11:06:22;9.30;;;3.80;;
75016;SDS011;63577;39.766;2.720;2023-04-25T11:08:49;9.30;;;4.30;;
75016;SDS011;63577;39.766;2.720;2023-04-25T11:11:15;7.10;;;3.90;;
75016;SDS011;63577;39.766;2.720;2023-04-25T11:13:42;9.10;;;3.90;;
75016;SDS011;63577;39.766;2.720;2023-04-25T11:16:07;8.90;;;3.40;;
75016;SDS011;63577;39.766;2.720;2023-04-25T11:18:33;7.20;;;2.80;;
75016;SDS011;63577;39.766;2.720;2023-04-25T11:20:59;8.00;;;2.80;;
75016;SDS011;63577;39.766;2.720;2023-04-25T11:23:25;6.10;;;2.20;;
75016;SDS011;63577;39.766;2.720;2023-04-25T11:25:51;7.40;;;2.20;;
75016;SDS011;63577;39.766;2.720;2023-04-25T11:28:21;7.00;;;2.10;;
75016;SDS011;63577;39.766;2.720;2023-04-25T11:30:50;8.30;;;3.10;;
75016;SDS011;63577;39.766;2.720;2023-04-25T11:33:16;5.50;;;2.50;;
75016;SDS011;63577;39.766;2.720;2023-04-25T11:35:42;6.50;;;2.20;;
75016;SDS011;63577;39.766;2.720;2023-04-25T11:38:07;6.50;;;2.50;;
75016;SDS011;63577;39.766;2.720;2023-04-25T11:40:32;6.20;;;2.80;;
75016;SDS011;63577;39.766;2.720;2023-04-25T11:42:59;7.70;;;3.00;;
75016;SDS011;63577;39.766;2.720;2023-04-25T11:45:25;7.20;;;2.70;;
75016;SDS011;63577;39.766;2.720;2023-04-25T11:47:51;6.40;;;2.90;;
75016;SDS011;63577;39.766;2.720;2023-04-25T11:50:17;7.40;;;2.70;;
75016;SDS011;63577;39.766;2.720;2023-04-25T11:52:43;7.00;;;2.50;;
75016;SDS011;63577;39.766;2.720;2023-04-25T11:55:09;5.70;;;2.30;;
75016;SDS011;63577;39.766;2.720;2023-04-25T11:57:37;7.70;;;2.20;;
75016;SDS011;63577;39.766;2.720;2023-04-25T12:00:10;5.50;;;2.20;;
75016;SDS011;63577;39.766;2.720;2023-04-25T12:02:36;7.20;;;2.40;;
75016;SDS011;63577;39.766;2.720;2023-04-25T12:05:02;6.10;;;2.70;;
75016;SDS011;63577;39.766;2.720;2023-04-25T12:07:31;6.80;;;3.10;;
75016;SDS011;63577;39.766;2.720;2023-04-25T12:09:56;6.20;;;2.10;;
75016;SDS011;63577;39.766;2.720;2023-04-25T12:12:22;5.00;;;1.80;;
75016;SDS011;63577;39.766;2.720;2023-04-25T12:14:51;4.70;;;2.40;;
75016;SDS011;63577;39.766;2.720;2023-04-25T12:17:17;5.20;;;2.00;;
75016;SDS011;63577;39.766;2.720;2023-04-25T12:19:42;7.20;;;2.40;;
75016;SDS011;63577;39.766;2.720;2023-04-25T12:22:22;6.70;;;2.10;;
75016;SDS011;63577;39.766;2.720;2023-04-25T12:24:48;4.80;;;1.70;;
75016;SDS011;63577;39.766;2.720;2023-04-25T12:27:14;5.60;;;1.90;;
75016;SDS011;63577;39.766;2.720;2023-04-25T12:29:53;5.40;;;2.20;;
75016;SDS011;63577;39.766;2.720;2023-04-25T12:34:44;5.50;;;1.80;;
75016;SDS011;63577;39.766;2.720;2023-04-25T12:37:10;4.50;;;1.80;;
75016;SDS011;63577;39.766;2.720;2023-04-25T12:39:36;4.10;;;1.60;;
75016;SDS011;63577;39.766;2.720;2023-04-25T12:42:01;6.80;;;2.00;;
75016;SDS011;63577;39.766;2.720;2023-04-25T12:44:28;4.40;;;1.80;;
75016;SDS011;63577;39.766;2.720;2023-04-25T12:46:53;4.90;;;1.30;;
75016;SDS011;63577;39.766;2.720;2023-04-25T12:49:20;4.90;;;1.50;;
75016;SDS011;63577;39.766;2.720;2023-04-25T12:51:45;4.20;;;1.40;;
75016;SDS011;63577;39.766;2.720;2023-04-25T12:54:11;3.40;;;1.20;;
75016;SDS011;63577;39.766;2.720;2023-04-25T12:56:37;5.20;;;1.30;;
75016;SDS011;63577;39.766;2.720;2023-04-25T12:59:02;3.90;;;1.20;;
75016;SDS011;63577;39.766;2.720;2023-04-25T13:01:28;3.60;;;1.30;;
75016;SDS011;63577;39.766;2.720;2023-04-25T13:03:53;3.50;;;1.20;;
75016;SDS011;63577;39.766;2.720;2023-04-25T13:06:19;4.10;;;1.40;;
75016;SDS011;63577;39.766;2.720;2023-04-25T13:08:45;5.10;;;1.40;;
75016;SDS011;63577;39.766;2.720;2023-04-25T13:11:11;3.70;;;1.20;;
75016;SDS011;63577;39.766;2.720;2023-04-25T13:13:36;4.10;;;1.40;;
75016;SDS011;63577;39.766;2.720;2023-04-25T13:16:02;4.20;;;1.20;;
75016;SDS011;63577;39.766;2.720;2023-04-25T13:18:28;4.60;;;1.60;;
75016;SDS011;63577;39.766;2.720;2023-04-25T13:20:54;3.60;;;1.20;;
75016;SDS011;63577;39.766;2.720;2023-04-25T13:23:19;4.40;;;1.30;;
75016;SDS011;63577;39.766;2.720;2023-04-25T13:25:48;3.90;;;1.40;;
75016;SDS011;63577;39.766;2.720;2023-04-25T13:28:13;5.40;;;1.40;;
75016;SDS011;63577;39.766;2.720;2023-04-25T13:30:39;3.90;;;1.20;;
75016;SDS011;63577;39.766;2.720;2023-04-25T13:33:05;4.60;;;1.60;;
75016;SDS011;63577;39.766;2.720;2023-04-25T13:35:32;4.40;;;1.40;;
75016;SDS011;63577;39.766;2.720;2023-04-25T13:37:57;4.00;;;1.40;;
75016;SDS011;63577;39.766;2.720;2023-04-25T13:40:23;4.10;;;1.90;;
75016;SDS011;63577;39.766;2.720;2023-04-25T13:42:48;4.10;;;1.70;;
75016;SDS011;63577;39.766;2.720;2023-04-25T13:45:13;5.40;;;1.90;;
75016;SDS011;63577;39.766;2.720;2023-04-25T13:47:39;3.80;;;1.40;;
75016;SDS011;63577;39.766;2.720;2023-04-25T13:50:05;5.10;;;1.80;;
75016;SDS011;63577;39.766;2.720;2023-04-25T13:52:31;4.60;;;1.80;;
75016;SDS011;63577;39.766;2.720;2023-04-25T13:54:57;4.00;;;1.60;;
75016;SDS011;63577;39.766;2.720;2023-04-25T13:57:22;4.40;;;1.40;;
75016;SDS011;63577;39.766;2.720;2023-04-25T13:59:47;3.40;;;1.40;;
75016;SDS011;63577;39.766;2.720;2023-04-25T14:02:13;4.60;;;1.40;;
75016;SDS011;63577;39.766;2.720;2023-04-25T14:04:38;4.30;;;1.40;;
75016;SDS011;63577;39.766;2.720;2023-04-25T14:07:03;5.80;;;1.50;;
75016;SDS011;63577;39.766;2.720;2023-04-25T14:09:30;3.70;;;1.60;;
75016;SDS011;63577;39.766;2.720;2023-04-25T14:11:55;3.60;;;1.50;;
75016;SDS011;63577;39.766;2.720;2023-04-25T14:14:21;8.20;;;1.50;;
75016;SDS011;63577;39.766;2.720;2023-04-25T14:16:47;3.90;;;1.20;;
75016;SDS011;63577;39.766;2.720;2023-04-25T14:19:13;4.90;;;1.50;;
75016;SDS011;63577;39.766;2.720;2023-04-25T14:21:39;3.80;;;1.70;;
75016;SDS011;63577;39.766;2.720;2023-04-25T14:24:04;5.00;;;1.50;;
75016;SDS011;63577;39.766;2.720;2023-04-25T14:26:30;4.30;;;1.40;;
75016;SDS011;63577;39.766;2.720;2023-04-25T14:28:55;4.10;;;1.30;;
75016;SDS011;63577;39.766;2.720;2023-04-25T14:31:20;5.90;;;1.50;;
75016;SDS011;63577;39.766;2.720;2023-04-25T14:33:46;5.40;;;1.30;;
75016;SDS011;63577;39.766;2.720;2023-04-25T14:36:12;2.90;;;1.10;;
75016;SDS011;63577;39.766;2.720;2023-04-25T14:38:37;3.10;;;1.20;;
75016;SDS011;63577;39.766;2.720;2023-04-25T14:41:03;4.70;;;1.30;;
75016;SDS011;63577;39.766;2.720;2023-04-25T14:43:28;3.70;;;1.20;;
75016;SDS011;63577;39.766;2.720;2023-04-25T14:45:53;5.20;;;1.20;;
75016;SDS011;63577;39.766;2.720;2023-04-25T14:48:19;3.20;;;1.30;;
75016;SDS011;63577;39.766;2.720;2023-04-25T14:50:45;2.90;;;1.10;;